Frem Nordica — OVIL2 — position and weather

sailwx.info

Track history (hours):
 
Tides and Currents Weather Stations Pressure Air Temp Water Temp Dewpoint Dewpoint Depression Visibility Wind Speed Wind Dir Waves Ship Positions

Frem Nordica

Last reported at 2016-May-04 07:33 UTC. Time now 2016-May-04 07:51 UTC.
Position N 51°16' E 004°22'.

Length 79 m; draft 3.5 m.

Type: Ship. MMSI: 220439000.

Date/timePositionNaut miles runAvg speedWind from/ knotsBaromVisibWave heightAir tempDewpointWater temp
2016-May-04 07:33N 51°16' E 004°22'0 0.0
2016-May-04 06:29N 51°16' E 004°22'0 0.0
2016-May-04 05:33N 51°16' E 004°22'0 0.0
2016-May-04 04:27N 51°16' E 004°22'0 0.0
2016-May-04 03:33N 51°16' E 004°22'0 0.0
2016-May-04 02:33N 51°16' E 004°22'0 0.0
2016-May-04 01:33N 51°16' E 004°22'0 0.0
2016-May-04 00:21N 51°16' E 004°22'0 0.0
2016-May-03 23:33N 51°16' E 004°22'0 0.0
2016-May-03 22:23N 51°16' E 004°22'0 0.0
2016-May-03 21:33N 51°16' E 004°22'0 0.0
2016-May-03 20:27N 51°16' E 004°22'0 0.0
2016-May-03 19:33N 51°16' E 004°22'0 0.0
2016-May-03 18:29N 51°16' E 004°22'0 0.0
2016-May-03 17:29N 51°16' E 004°22'0 0.0
2016-May-03 16:33N 51°16' E 004°22'0 0.0
2016-May-03 15:33N 51°16' E 004°22'0 0.0
2016-May-03 14:33N 51°16' E 004°22'0 0.0
2016-May-03 13:33N 51°16' E 004°22'1 1.0
2016-May-03 12:31N 51°17' E 004°21'0 0.0
2016-May-03 11:31N 51°17' E 004°21'0 0.0
2016-May-03 10:31N 51°17' E 004°21'0 0.0
2016-May-03 09:31N 51°17' E 004°21'0 0.0
2016-May-03 08:25N 51°17' E 004°21'0 0.0
2016-May-03 07:31N 51°17' E 004°21'0 0.0
2016-May-03 06:31N 51°17' E 004°21'0 0.0
2016-May-03 05:31N 51°17' E 004°21'0 0.0
2016-May-03 04:31N 51°17' E 004°21'0 0.0
2016-May-03 03:31N 51°17' E 004°21'0 0.0
2016-May-03 02:31N 51°17' E 004°21'0 0.0
2016-May-03 01:31N 51°17' E 004°21'0 0.0
2016-May-03 00:31N 51°17' E 004°21'0 0.0
2016-May-02 23:31N 51°17' E 004°21'0 0.0
2016-May-02 22:31N 51°17' E 004°21'0 0.0
2016-May-02 21:33N 51°17' E 004°21'0 0.0
2016-May-02 20:33N 51°17' E 004°21'0 0.0
2016-May-02 19:33N 51°17' E 004°21'0 0.0
2016-May-02 18:33N 51°17' E 004°21'0 0.0
2016-May-02 17:33N 51°17' E 004°21'0 0.0
2016-May-02 16:27N 51°17' E 004°21'0 0.0
2016-May-02 15:31N 51°17' E 004°21'0 0.0
2016-May-02 14:31N 51°17' E 004°21'0 0.0
2016-May-02 13:28N 51°17' E 004°21'0 0.0
2016-May-02 12:31N 51°17' E 004°21'0 0.0
2016-May-02 11:31N 51°17' E 004°21'0 0.0
2016-May-02 10:31N 51°17' E 004°21'0 0.0
2016-May-02 09:25N 51°17' E 004°21'0 0.0
2016-May-02 08:19N 51°17' E 004°21'0 0.0
2016-May-02 07:28N 51°17' E 004°21'0 0.0
2016-May-02 06:31N 51°17' E 004°21'0 0.0
2016-May-02 05:31N 51°17' E 004°21'0 0.0
2016-May-02 04:31N 51°17' E 004°21'0 0.0
2016-May-02 03:25N 51°17' E 004°21'0 0.0
2016-May-02 02:29N 51°17' E 004°21'0 0.0
2016-May-02 01:31N 51°17' E 004°21'0 0.0
2016-May-02 00:31N 51°17' E 004°21'0 0.0
2016-May-01 23:32N 51°17' E 004°21'0 0.0
2016-May-01 22:32N 51°17' E 004°21'0 0.0
2016-May-01 21:30N 51°17' E 004°21'0 0.0
2016-May-01 20:32N 51°17' E 004°21'0 0.0
2016-May-01 19:32N 51°17' E 004°21'0 0.0
2016-May-01 18:32N 51°17' E 004°21'0 0.0
2016-May-01 17:32N 51°17' E 004°21'0 0.0
2016-May-01 16:32N 51°17' E 004°21'0 0.0
2016-May-01 15:33N 51°17' E 004°21'0 0.0
2016-May-01 14:33N 51°17' E 004°21'0 0.0
2016-May-01 13:27N 51°17' E 004°21'0 0.0
2016-May-01 12:30N 51°17' E 004°21'0 0.0
2016-May-01 11:33N 51°17' E 004°21'0 0.0
2016-May-01 10:33N 51°17' E 004°21'0 0.0
2016-May-01 09:30N 51°17' E 004°21'0 0.0
2016-May-01 08:33N 51°17' E 004°21'0 0.0
2016-May-01 07:30N 51°17' E 004°21'0 0.0
2016-May-01 06:33N 51°17' E 004°21'1 0.8
2016-May-01 05:33N 51°17' E 004°20'0 0.0
2016-May-01 04:34N 51°17' E 004°20'7 7.0
2016-May-01 03:33N 51°22' E 004°13'7 6.6
2016-May-01 02:33N 51°23' E 004°03'4 3.6
2016-May-01 01:34N 51°23' E 003°57'6 6.3
2016-May-01 00:33N 51°21' E 003°47'6 6.4
2016-Apr-30 23:33N 51°25' E 003°38'7 6.8
2016-Apr-30 22:33N 51°29' E 003°30'8 7.4
2016-Apr-30 21:30N 51°36' E 003°23'132 6.9
2016-Apr-30 02:19N 53°34' E 005°01'4 5.5
2016-Apr-30 01:31N 53°35' E 005°07'5 4.8
2016-Apr-30 00:34N 53°37' E 005°15'5 4.6
2016-Apr-29 23:33N 53°39' E 005°22'4 4.3
2016-Apr-29 22:34N 53°40' E 005°28'4 4.3
2016-Apr-29 21:33N 53°42' E 005°35'5 5.1
2016-Apr-29 20:33N 53°43' E 005°44'7 6.5
2016-Apr-29 19:33N 53°45' E 005°54'22 7.0
2016-Apr-29 16:25N 53°51' E 006°30'6 6.7
2016-Apr-29 15:33N 53°52' E 006°40'7 6.7
2016-Apr-29 14:33N 53°54' E 006°51'7 6.5
2016-Apr-29 13:33N 53°56' E 007°01'6 6.0
2016-Apr-29 12:34N 53°57' E 007°11'6 5.6
2016-Apr-29 11:33N 53°59' E 007°20'6 5.6
2016-Apr-29 10:33N 54°00' E 007°30'6 6.4
2016-Apr-29 09:33N 54°02' E 007°40'7 7.2
2016-Apr-29 08:33N 54°02' E 007°52'8 8.1
2016-Apr-29 07:33N 54°01' E 008°06'10 9.6
2016-Apr-29 06:33N 53°60' E 008°22'1010.1
2016-Apr-29 05:33N 53°57' E 008°39'8 8.0
2016-Apr-29 04:33N 53°51' E 008°47'7 6.7
2016-Apr-29 03:33N 53°51' E 008°58'6 5.9
2016-Apr-29 02:33N 53°53' E 009°08'5 4.6
2016-Apr-29 01:33N 53°56' E 009°13'8 8.3
2016-Apr-29 00:33N 54°04' E 009°19'29 7.1
2016-Apr-28 20:33N 54°21' E 009°58'6 6.1
2016-Apr-28 19:34N 54°22' E 010°08'1 1.2
2016-Apr-28 18:34N 54°22' E 010°10'8 7.8
2016-Apr-28 17:29N 54°30' E 010°17'16 8.2
2016-Apr-28 15:33N 54°35' E 010°43'8 8.0
2016-Apr-28 14:34N 54°36' E 010°56'8 8.1
2016-Apr-28 13:33N 54°36' E 011°10'9 8.6
2016-Apr-28 12:33N 54°33' E 011°24'8 8.4
2016-Apr-28 11:33N 54°31' E 011°38'8 8.2
2016-Apr-28 10:33N 54°30' E 011°52'8 7.8
2016-Apr-28 09:33N 54°31' E 012°06'20 8.8
2016-Apr-28 07:20N 54°45' E 012°28'58 8.5
2016-Apr-28 00:32N 55°04' E 014°03'8 8.0
2016-Apr-27 23:33N 55°10' E 014°12'8 8.3
2016-Apr-27 22:33N 55°17' E 014°20'8 8.4
2016-Apr-27 21:33N 55°24' E 014°30'8 8.5
2016-Apr-27 20:33N 55°29' E 014°41'8 8.4
2016-Apr-27 19:33N 55°33' E 014°54'8 8.2
2016-Apr-27 18:33N 55°37' E 015°07'192 6.0
2016-Apr-26 10:28N 58°37' E 017°05'8 8.4
2016-Apr-26 09:33N 58°37' E 016°51'8 8.4
2016-Apr-26 08:33N 58°38' E 016°35'8 8.2
2016-Apr-26 07:34N 58°38' E 016°19'4 3.6
2016-Apr-26 06:31N 58°36' E 016°13'0 0.0
2016-Apr-26 05:31N 58°36' E 016°13'0 0.0
2016-Apr-26 04:28N 58°36' E 016°13'0 0.0
2016-Apr-26 03:31N 58°36' E 016°13'0 0.0
2016-Apr-26 02:31N 58°36' E 016°13'0 0.0
2016-Apr-26 01:31N 58°36' E 016°13'0 0.0
2016-Apr-26 00:31N 58°36' E 016°13'0 0.0
2016-Apr-25 23:32N 58°36' E 016°13'0 0.0
2016-Apr-25 22:32N 58°36' E 016°13'0 0.0
2016-Apr-25 21:32N 58°36' E 016°13'0 0.0
2016-Apr-25 20:32N 58°36' E 016°13'0 0.0
2016-Apr-25 19:32N 58°36' E 016°13'0 0.0
2016-Apr-25 18:32N 58°36' E 016°13'0 0.0
2016-Apr-25 17:32N 58°36' E 016°13'0 0.0
2016-Apr-25 09:32N 58°36' E 016°13'0 0.0
2016-Apr-25 08:26N 58°36' E 016°13'0 0.0
2016-Apr-25 07:32N 58°36' E 016°13'0 0.4
2016-Apr-25 06:33N 58°36' E 016°13'0 0.0
2016-Apr-25 05:33N 58°36' E 016°13'0 0.0
2016-Apr-25 04:33N 58°36' E 016°13'0 0.0
2016-Apr-25 03:33N 58°36' E 016°13'0 0.0
2016-Apr-25 02:33N 58°36' E 016°13'0 0.0
2016-Apr-25 01:32N 58°36' E 016°13'0 0.0
2016-Apr-25 00:32N 58°36' E 016°13'0 0.0
2016-Apr-24 23:32N 58°36' E 016°13'0 0.0
2016-Apr-24 22:32N 58°36' E 016°13'0 0.0
2016-Apr-24 21:32N 58°36' E 016°13'0 0.0
2016-Apr-24 20:32N 58°36' E 016°13'0 0.0
2016-Apr-24 19:32N 58°36' E 016°13'0 0.0
2016-Apr-24 18:32N 58°36' E 016°13'0 0.0
2016-Apr-24 17:32N 58°36' E 016°13'0 0.0
2016-Apr-24 16:32N 58°36' E 016°13'0 0.0
2016-Apr-24 15:32N 58°36' E 016°13'0 0.0
2016-Apr-24 14:32N 58°36' E 016°13'0 0.0
2016-Apr-24 13:26N 58°36' E 016°13'0 0.0
2016-Apr-24 12:26N 58°36' E 016°13'0 0.0
2016-Apr-24 11:14N 58°36' E 016°13'0 0.0
2016-Apr-24 10:22N 58°36' E 016°13'0 0.0
2016-Apr-24 09:28N 58°36' E 016°13'0 0.0
2016-Apr-24 08:32N 58°36' E 016°13'  
Track history (hours):
 
Tides and Currents Weather Stations Pressure Air Temp Water Temp Dewpoint Dewpoint Depression Visibility Wind Speed Wind Dir Waves Ship Positions

Frem Nordica

Last reported at 2016-May-04 07:33 UTC. Time now 2016-May-04 07:51 UTC.
Position N 51°16' E 004°22'.

Length 79 m; draft 3.5 m.

Type: Ship. MMSI: 220439000.

Date/timePositionNaut miles runAvg speedWind from/ knotsBaromVisibWave heightAir tempDewpointWater temp
2016-May-04 07:33N 51°16' E 004°22'0 0.0
2016-May-04 06:29N 51°16' E 004°22'0 0.0
2016-May-04 05:33N 51°16' E 004°22'0 0.0
2016-May-04 04:27N 51°16' E 004°22'0 0.0
2016-May-04 03:33N 51°16' E 004°22'0 0.0
2016-May-04 02:33N 51°16' E 004°22'0 0.0
2016-May-04 01:33N 51°16' E 004°22'0 0.0
2016-May-04 00:21N 51°16' E 004°22'0 0.0
2016-May-03 23:33N 51°16' E 004°22'0 0.0
2016-May-03 22:23N 51°16' E 004°22'0 0.0
2016-May-03 21:33N 51°16' E 004°22'0 0.0
2016-May-03 20:27N 51°16' E 004°22'0 0.0
2016-May-03 19:33N 51°16' E 004°22'0 0.0
2016-May-03 18:29N 51°16' E 004°22'0 0.0
2016-May-03 17:29N 51°16' E 004°22'0 0.0
2016-May-03 16:33N 51°16' E 004°22'0 0.0
2016-May-03 15:33N 51°16' E 004°22'0 0.0
2016-May-03 14:33N 51°16' E 004°22'0 0.0
2016-May-03 13:33N 51°16' E 004°22'1 1.0
2016-May-03 12:31N 51°17' E 004°21'0 0.0
2016-May-03 11:31N 51°17' E 004°21'0 0.0
2016-May-03 10:31N 51°17' E 004°21'0 0.0
2016-May-03 09:31N 51°17' E 004°21'0 0.0
2016-May-03 08:25N 51°17' E 004°21'0 0.0
2016-May-03 07:31N 51°17' E 004°21'0 0.0
2016-May-03 06:31N 51°17' E 004°21'0 0.0
2016-May-03 05:31N 51°17' E 004°21'0 0.0
2016-May-03 04:31N 51°17' E 004°21'0 0.0
2016-May-03 03:31N 51°17' E 004°21'0 0.0
2016-May-03 02:31N 51°17' E 004°21'0 0.0
2016-May-03 01:31N 51°17' E 004°21'0 0.0
2016-May-03 00:31N 51°17' E 004°21'0 0.0
2016-May-02 23:31N 51°17' E 004°21'0 0.0
2016-May-02 22:31N 51°17' E 004°21'0 0.0
2016-May-02 21:33N 51°17' E 004°21'0 0.0
2016-May-02 20:33N 51°17' E 004°21'0 0.0
2016-May-02 19:33N 51°17' E 004°21'0 0.0
2016-May-02 18:33N 51°17' E 004°21'0 0.0
2016-May-02 17:33N 51°17' E 004°21'0 0.0
2016-May-02 16:27N 51°17' E 004°21'0 0.0
2016-May-02 15:31N 51°17' E 004°21'0 0.0
2016-May-02 14:31N 51°17' E 004°21'0 0.0
2016-May-02 13:28N 51°17' E 004°21'0 0.0
2016-May-02 12:31N 51°17' E 004°21'0 0.0
2016-May-02 11:31N 51°17' E 004°21'0 0.0
2016-May-02 10:31N 51°17' E 004°21'0 0.0
2016-May-02 09:25N 51°17' E 004°21'0 0.0
2016-May-02 08:19N 51°17' E 004°21'0 0.0
2016-May-02 07:28N 51°17' E 004°21'0 0.0
2016-May-02 06:31N 51°17' E 004°21'0 0.0
2016-May-02 05:31N 51°17' E 004°21'0 0.0
2016-May-02 04:31N 51°17' E 004°21'0 0.0
2016-May-02 03:25N 51°17' E 004°21'0 0.0
2016-May-02 02:29N 51°17' E 004°21'0 0.0
2016-May-02 01:31N 51°17' E 004°21'0 0.0
2016-May-02 00:31N 51°17' E 004°21'0 0.0
2016-May-01 23:32N 51°17' E 004°21'0 0.0
2016-May-01 22:32N 51°17' E 004°21'0 0.0
2016-May-01 21:30N 51°17' E 004°21'0 0.0
2016-May-01 20:32N 51°17' E 004°21'0 0.0
2016-May-01 19:32N 51°17' E 004°21'0 0.0
2016-May-01 18:32N 51°17' E 004°21'0 0.0
2016-May-01 17:32N 51°17' E 004°21'0 0.0
2016-May-01 16:32N 51°17' E 004°21'0 0.0
2016-May-01 15:33N 51°17' E 004°21'0 0.0
2016-May-01 14:33N 51°17' E 004°21'0 0.0
2016-May-01 13:27N 51°17' E 004°21'0 0.0
2016-May-01 12:30N 51°17' E 004°21'0 0.0
2016-May-01 11:33N 51°17' E 004°21'0 0.0
2016-May-01 10:33N 51°17' E 004°21'0 0.0
2016-May-01 09:30N 51°17' E 004°21'0 0.0
2016-May-01 08:33N 51°17' E 004°21'0 0.0
2016-May-01 07:30N 51°17' E 004°21'0 0.0
2016-May-01 06:33N 51°17' E 004°21'1 0.8
2016-May-01 05:33N 51°17' E 004°20'0 0.0
2016-May-01 04:34N 51°17' E 004°20'7 7.0
2016-May-01 03:33N 51°22' E 004°13'7 6.6
2016-May-01 02:33N 51°23' E 004°03'4 3.6
2016-May-01 01:34N 51°23' E 003°57'6 6.3
2016-May-01 00:33N 51°21' E 003°47'6 6.4
2016-Apr-30 23:33N 51°25' E 003°38'7 6.8
2016-Apr-30 22:33N 51°29' E 003°30'8 7.4
2016-Apr-30 21:30N 51°36' E 003°23'132 6.9
2016-Apr-30 02:19N 53°34' E 005°01'4 5.5
2016-Apr-30 01:31N 53°35' E 005°07'5 4.8
2016-Apr-30 00:34N 53°37' E 005°15'5 4.6
2016-Apr-29 23:33N 53°39' E 005°22'4 4.3
2016-Apr-29 22:34N 53°40' E 005°28'4 4.3
2016-Apr-29 21:33N 53°42' E 005°35'5 5.1
2016-Apr-29 20:33N 53°43' E 005°44'7 6.5
2016-Apr-29 19:33N 53°45' E 005°54'22 7.0
2016-Apr-29 16:25N 53°51' E 006°30'6 6.7
2016-Apr-29 15:33N 53°52' E 006°40'7 6.7
2016-Apr-29 14:33N 53°54' E 006°51'7 6.5
2016-Apr-29 13:33N 53°56' E 007°01'6 6.0
2016-Apr-29 12:34N 53°57' E 007°11'6 5.6
2016-Apr-29 11:33N 53°59' E 007°20'6 5.6
2016-Apr-29 10:33N 54°00' E 007°30'6 6.4
2016-Apr-29 09:33N 54°02' E 007°40'7 7.2
2016-Apr-29 08:33N 54°02' E 007°52'8 8.1
2016-Apr-29 07:33N 54°01' E 008°06'10 9.6
2016-Apr-29 06:33N 53°60' E 008°22'1010.1
2016-Apr-29 05:33N 53°57' E 008°39'8 8.0
2016-Apr-29 04:33N 53°51' E 008°47'7 6.7
2016-Apr-29 03:33N 53°51' E 008°58'6 5.9
2016-Apr-29 02:33N 53°53' E 009°08'5 4.6
2016-Apr-29 01:33N 53°56' E 009°13'8 8.3
2016-Apr-29 00:33N 54°04' E 009°19'29 7.1
2016-Apr-28 20:33N 54°21' E 009°58'6 6.1
2016-Apr-28 19:34N 54°22' E 010°08'1 1.2
2016-Apr-28 18:34N 54°22' E 010°10'8 7.8
2016-Apr-28 17:29N 54°30' E 010°17'16 8.2
2016-Apr-28 15:33N 54°35' E 010°43'8 8.0
2016-Apr-28 14:34N 54°36' E 010°56'8 8.1
2016-Apr-28 13:33N 54°36' E 011°10'9 8.6
2016-Apr-28 12:33N 54°33' E 011°24'8 8.4
2016-Apr-28 11:33N 54°31' E 011°38'8 8.2
2016-Apr-28 10:33N 54°30' E 011°52'8 7.8
2016-Apr-28 09:33N 54°31' E 012°06'20 8.8
2016-Apr-28 07:20N 54°45' E 012°28'58 8.5
2016-Apr-28 00:32N 55°04' E 014°03'8 8.0
2016-Apr-27 23:33N 55°10' E 014°12'8 8.3
2016-Apr-27 22:33N 55°17' E 014°20'8 8.4
2016-Apr-27 21:33N 55°24' E 014°30'8 8.5
2016-Apr-27 20:33N 55°29' E 014°41'8 8.4
2016-Apr-27 19:33N 55°33' E 014°54'8 8.2
2016-Apr-27 18:33N 55°37' E 015°07'192 6.0
2016-Apr-26 10:28N 58°37' E 017°05'8 8.4
2016-Apr-26 09:33N 58°37' E 016°51'8 8.4
2016-Apr-26 08:33N 58°38' E 016°35'8 8.2
2016-Apr-26 07:34N 58°38' E 016°19'4 3.6
2016-Apr-26 06:31N 58°36' E 016°13'0 0.0
2016-Apr-26 05:31N 58°36' E 016°13'0 0.0
2016-Apr-26 04:28N 58°36' E 016°13'0 0.0
2016-Apr-26 03:31N 58°36' E 016°13'0 0.0
2016-Apr-26 02:31N 58°36' E 016°13'0 0.0
2016-Apr-26 01:31N 58°36' E 016°13'0 0.0
2016-Apr-26 00:31N 58°36' E 016°13'0 0.0
2016-Apr-25 23:32N 58°36' E 016°13'0 0.0
2016-Apr-25 22:32N 58°36' E 016°13'0 0.0
2016-Apr-25 21:32N 58°36' E 016°13'0 0.0
2016-Apr-25 20:32N 58°36' E 016°13'0 0.0
2016-Apr-25 19:32N 58°36' E 016°13'0 0.0
2016-Apr-25 18:32N 58°36' E 016°13'0 0.0
2016-Apr-25 17:32N 58°36' E 016°13'0 0.0
2016-Apr-25 09:32N 58°36' E 016°13'0 0.0
2016-Apr-25 08:26N 58°36' E 016°13'0 0.0
2016-Apr-25 07:32N 58°36' E 016°13'0 0.4
2016-Apr-25 06:33N 58°36' E 016°13'0 0.0
2016-Apr-25 05:33N 58°36' E 016°13'0 0.0
2016-Apr-25 04:33N 58°36' E 016°13'0 0.0
2016-Apr-25 03:33N 58°36' E 016°13'0 0.0
2016-Apr-25 02:33N 58°36' E 016°13'0 0.0
2016-Apr-25 01:32N 58°36' E 016°13'0 0.0
2016-Apr-25 00:32N 58°36' E 016°13'0 0.0
2016-Apr-24 23:32N 58°36' E 016°13'0 0.0
2016-Apr-24 22:32N 58°36' E 016°13'0 0.0
2016-Apr-24 21:32N 58°36' E 016°13'0 0.0
2016-Apr-24 20:32N 58°36' E 016°13'0 0.0
2016-Apr-24 19:32N 58°36' E 016°13'0 0.0
2016-Apr-24 18:32N 58°36' E 016°13'0 0.0
2016-Apr-24 17:32N 58°36' E 016°13'0 0.0
2016-Apr-24 16:32N 58°36' E 016°13'0 0.0
2016-Apr-24 15:32N 58°36' E 016°13'0 0.0
2016-Apr-24 14:32N 58°36' E 016°13'0 0.0
2016-Apr-24 13:26N 58°36' E 016°13'0 0.0
2016-Apr-24 12:26N 58°36' E 016°13'0 0.0
2016-Apr-24 11:14N 58°36' E 016°13'0 0.0
2016-Apr-24 10:22N 58°36' E 016°13'0 0.0
2016-Apr-24 09:28N 58°36' E 016°13'0 0.0
2016-Apr-24 08:32N 58°36' E 016°13'  

Dump ship's entire track history